Time;durP1;ratioP1;P1;durP2;ratioP2;P2;SDS_P1;SDS_P2;PMS_P1;PMS_P2;Temp;Humidity;BMP_temperature;BMP_pressure;BME280_temperature;BME280_humidity;BME280_pressure;Samples;Min_cycle;Max_cycle;Signal;HPM_P1;HPM_P2
2022/11/19 00:01:27;;;;;;;34.40;8.88;;;;;;;10.49;100.00;100495.22;5082934;28;20048;-82
2022/11/19 00:03:54;;;;;;;44.22;9.05;;;;;;;10.46;100.00;100514.50;5089501;28;20052;-82
2022/11/19 00:06:24;;;;;;;41.75;8.00;;;;;;;10.25;100.00;100500.47;5089809;28;20052;-82
2022/11/19 00:08:52;;;;;;;35.33;8.50;;;;;;;10.13;100.00;100511.41;5072766;28;20537;-82
2022/11/19 00:14:13;;;;;;;36.10;8.25;;;;;;;10.35;100.00;100514.94;5090417;28;20530;-82
2022/11/19 00:16:41;;;;;;;27.25;7.55;;;;;;;10.29;100.00;100512.53;5073280;28;20447;-82
2022/11/19 00:19:09;;;;;;;41.55;9.23;;;;;;;9.92;100.00;100519.22;5093643;28;20048;-82
2022/11/19 00:21:36;;;;;;;30.92;7.85;;;;;;;9.91;100.00;100499.19;5076223;28;20055;-82
2022/11/19 00:24:02;;;;;;;44.45;8.70;;;;;;;10.10;100.00;100530.72;5093703;28;20048;-81
2022/11/19 00:26:29;;;;;;;37.70;9.48;;;;;;;10.34;100.00;100534.19;5091816;28;20101;-82
2022/11/19 00:28:56;;;;;;;36.70;8.48;;;;;;;10.04;100.00;100526.59;5093517;28;20048;-82
2022/11/19 00:31:23;;;;;;;41.10;8.68;;;;;;;10.07;100.00;100543.91;5074675;28;20047;-82
2022/11/19 00:33:50;;;;;;;46.95;8.63;;;;;;;9.92;100.00;100508.75;5092729;28;20090;-81
2022/11/19 00:36:16;;;;;;;35.88;7.20;;;;;;;10.27;100.00;100545.78;5074931;28;20052;-81
2022/11/19 00:38:43;;;;;;;34.08;8.70;;;;;;;10.17;100.00;100547.03;5074566;28;20142;-81
2022/11/19 00:41:10;;;;;;;36.85;7.85;;;;;;;10.10;100.00;100567.34;5074476;28;20105;-82
2022/11/19 00:43:46;;;;;;;43.75;9.18;;;;;;;9.85;100.00;100549.13;5093884;28;20120;-81
2022/11/19 00:46:13;;;;;;;42.13;8.27;;;;;;;10.21;100.00;100554.69;5108095;28;20121;-81
2022/11/19 00:48:40;;;;;;;37.20;8.55;;;;;;;10.07;100.00;100557.88;5092161;28;20044;-80
2022/11/19 00:51:08;;;;;;;38.28;7.70;;;;;;;10.11;100.00;100565.56;5092302;28;20052;-81
2022/11/19 00:53:35;;;;;;;21.88;7.10;;;;;;;10.29;100.00;100562.25;5074182;28;20048;-81
2022/11/19 00:56:05;;;;;;;32.03;9.02;;;;;;;10.15;100.00;100554.09;5091310;28;20056;-82
2022/11/19 00:58:32;;;;;;;42.78;8.88;;;;;;;10.36;100.00;100571.59;5092857;28;20044;-82
2022/11/19 01:00:59;;;;;;;39.85;8.02;;;;;;;10.35;100.00;100566.44;5088230;28;20060;-81
2022/11/19 01:03:26;;;;;;;30.33;8.07;;;;;;;10.22;100.00;100560.78;5093275;28;20058;-81
2022/11/19 01:05:53;;;;;;;34.55;7.53;;;;;;;10.08;100.00;100566.56;5093433;28;20056;-81
2022/11/19 01:08:20;;;;;;;34.45;7.70;;;;;;;10.28;100.00;100573.63;5075614;28;20043;-82
2022/11/19 01:10:47;;;;;;;36.47;7.53;;;;;;;10.28;100.00;100589.31;5075326;28;20105;-82
2022/11/19 01:15:59;;;;;;;41.60;9.23;;;;;;;10.05;100.00;100614.59;5092913;28;20423;-82
2022/11/19 01:18:27;;;;;;;41.78;9.13;;;;;;;9.93;100.00;100580.19;5075366;28;20466;-82
2022/11/19 01:20:54;;;;;;;38.00;8.40;;;;;;;10.14;100.00;100600.31;5075206;28;20056;-81
2022/11/19 01:23:21;;;;;;;34.83;8.27;;;;;;;10.44;100.00;100587.00;5075624;28;20052;-82
2022/11/19 01:25:48;;;;;;;35.53;8.45;;;;;;;10.46;100.00;100590.41;5091410;28;20048;-81
2022/11/19 01:28:15;;;;;;;36.67;9.05;;;;;;;10.22;100.00;100571.25;5074064;28;20546;-82
2022/11/19 01:30:42;;;;;;;32.30;9.75;;;;;;;10.15;100.00;100606.44;5093240;28;20104;-82
2022/11/19 01:33:10;;;;;;;42.83;9.25;;;;;;;10.00;100.00;100606.06;5075256;28;20044;-82
2022/11/19 01:35:37;;;;;;;31.65;8.32;;;;;;;9.86;100.00;100566.50;5074535;28;20040;-82
2022/11/19 01:38:04;;;;;;;37.40;8.75;;;;;;;10.09;100.00;100599.63;5093660;28;20066;-82
2022/11/19 01:40:32;;;;;;;42.83;8.15;;;;;;;10.14;100.00;100589.00;5092718;28;20052;-82
2022/11/19 01:42:59;;;;;;;31.17;7.75;;;;;;;10.11;100.00;100595.22;5108584;28;20048;-82
2022/11/19 01:45:53;;;;;;;40.13;7.35;;;;;;;10.24;100.00;100598.22;5073933;28;20078;-81
2022/11/19 01:48:19;;;;;;;;;;;;;;;10.20;100.00;100610.56;5093628;28;20089;-82
2022/11/19 01:50:51;;;;;;;25.35;8.18;;;;;;;10.14;100.00;100617.78;5093225;28;19923;-82
2022/11/19 01:53:21;;;;;;;40.35;9.02;;;;;;;10.12;100.00;100635.31;5092768;28;20051;-82
2022/11/19 01:55:49;;;;;;;43.08;8.18;;;;;;;10.00;100.00;100599.97;5073761;28;20051;-82
2022/11/19 01:58:20;;;;;;;36.47;8.93;;;;;;;10.13;100.00;100608.22;5074919;28;20463;-82
2022/11/19 02:00:47;;;;;;;33.60;8.20;;;;;;;10.16;100.00;100622.03;5075320;28;20513;-82
2022/11/19 02:03:15;;;;;;;36.75;8.77;;;;;;;9.95;100.00;100633.31;5074976;28;20052;-82
2022/11/19 02:05:42;;;;;;;27.95;6.57;;;;;;;9.83;100.00;100622.41;5074109;28;20047;-81
2022/11/19 02:08:35;;;;;;;41.80;8.93;;;;;;;10.14;100.00;100636.09;5074588;28;20094;-82
2022/11/19 02:11:16;;;;;;;31.63;7.30;;;;;;;10.23;100.00;100646.22;5080660;28;20378;-81
2022/11/19 02:14:05;;;;;;;32.03;8.75;;;;;;;10.12;100.00;100638.78;5091924;28;20048;-81
2022/11/19 02:16:38;;;;;;;40.92;8.35;;;;;;;10.25;100.00;100637.41;5058998;28;20052;-81
2022/11/19 02:19:22;;;;;;;41.60;7.90;;;;;;;10.21;100.00;100645.44;5076448;28;20045;-82
2022/11/19 02:21:59;;;;;;;;;;;;;;;10.34;100.00;100645.84;5086077;28;20048;-81
2022/11/19 02:24:43;;;;;;;33.75;7.53;;;;;;;10.03;100.00;100650.44;5093008;28;19920;-81
2022/11/19 02:27:37;;;;;;;44.85;7.55;;;;;;;10.01;100.00;100638.31;5094911;28;20048;-82
2022/11/19 02:30:10;;;;;;;28.60;6.90;;;;;;;10.02;100.00;100651.34;5079093;28;20104;-82
2022/11/19 02:32:49;;;;;;;33.53;6.90;;;;;;;10.06;100.00;100641.63;5073963;28;20071;-82
2022/11/19 02:35:18;;;;;;;31.08;6.75;;;;;;;10.00;100.00;100641.84;5107174;28;20055;-81
2022/11/19 02:37:55;;;;;;;27.77;6.43;;;;;;;9.99;100.00;100648.84;5074359;28;20455;-81
2022/11/19 02:40:27;;;;;;;33.45;7.07;;;;;;;9.91;100.00;100645.63;5091496;28;20048;-82
2022/11/19 02:43:13;;;;;;;23.00;6.70;;;;;;;9.64;100.00;100629.19;5091763;28;20044;-82
2022/11/19 02:45:48;;;;;;;29.73;6.97;;;;;;;9.84;100.00;100652.88;5090877;28;20330;-81
2022/11/19 02:48:25;;;;;;;28.75;7.13;;;;;;;9.63;100.00;100659.72;5091339;28;20544;-82
2022/11/19 02:50:59;;;;;;;30.70;7.00;;;;;;;9.67;100.00;100658.69;5107360;28;20048;-81
2022/11/19 02:53:26;;;;;;;31.17;8.02;;;;;;;9.64;100.00;100647.50;5091910;28;20078;-81
2022/11/19 02:56:11;;;;;;;29.98;6.43;;;;;;;9.58;100.00;100660.75;5094385;28;20048;-81
2022/11/19 03:04:30;;;;;;;32.38;7.00;;;;;;;9.47;100.00;100661.13;5080637;28;20081;-81
2022/11/19 03:07:05;;;;;;;31.85;6.65;;;;;;;9.51;100.00;100675.81;5090960;28;20048;-82
2022/11/19 03:09:35;;;;;;;32.83;7.32;;;;;;;9.69;100.00;100669.94;5073877;28;20413;-81
2022/11/19 03:12:21;;;;;;;38.55;8.57;;;;;;;9.62;100.00;100651.94;5091880;28;20097;-81
2022/11/19 03:18:03;;;;;;;21.08;5.55;;;;;;;9.34;100.00;100692.06;5091467;28;20437;-81
2022/11/19 03:20:43;;;;;;;30.65;6.97;;;;;;;9.64;100.00;100692.78;5091464;28;20055;-81
2022/11/19 03:23:17;;;;;;;31.85;8.07;;;;;;;9.46;100.00;100675.13;5066728;28;20055;-82
2022/11/19 03:25:48;;;;;;;33.38;8.35;;;;;;;9.67;100.00;100692.69;5078907;28;20051;-82
2022/11/19 03:28:22;;;;;;;25.08;5.78;;;;;;;9.27;100.00;100646.13;5090789;28;20087;-81
2022/11/19 03:30:51;;;;;;;34.70;6.57;;;;;;;9.62;100.00;100665.84;5073215;28;20481;-82
2022/11/19 03:33:24;;;;;;;27.25;6.20;;;;;;;9.90;100.00;100685.78;5074000;28;20048;-82
2022/11/19 03:35:53;;;;;;;;;;;;;;;9.89;100.00;100697.16;5091405;28;20444;-81
2022/11/19 03:38:27;;;;;;;23.77;5.43;;;;;;;9.55;100.00;100673.97;5091437;28;19973;-82
2022/11/19 03:40:55;;;;;;;33.92;7.15;;;;;;;9.80;100.00;100692.25;5073463;28;20052;-81
2022/11/19 03:43:26;;;;;;;31.33;7.60;;;;;;;9.97;100.00;100697.75;5107395;28;20048;-82
2022/11/19 03:45:56;;;;;;;20.05;5.65;;;;;;;9.69;100.00;100695.25;5090394;28;20056;-82
2022/11/19 03:48:24;;;;;;;27.27;7.15;;;;;;;9.82;100.00;100704.34;5090367;28;20055;-81
2022/11/19 03:50:59;;;;;;;28.00;6.47;;;;;;;9.63;100.00;100722.47;5091453;28;20124;-82
2022/11/19 03:53:27;;;;;;;33.35;7.22;;;;;;;9.69;100.00;100721.38;5065014;28;20472;-82
2022/11/19 03:56:04;;;;;;;35.42;7.82;;;;;;;9.76;100.00;100699.34;5094555;28;20405;-82
2022/11/19 03:58:37;;;;;;;23.10;5.72;;;;;;;9.64;100.00;100705.84;5063450;28;20048;-83
2022/11/19 04:01:04;;;;;;;31.80;7.05;;;;;;;9.34;100.00;100707.72;5110818;28;20056;-82
2022/11/19 04:03:31;;;;;;;28.25;5.57;;;;;;;9.28;100.00;100700.09;5076688;28;20459;-82
2022/11/19 04:05:57;;;;;;;28.13;5.45;;;;;;;9.52;100.00;100723.72;5094535;28;20048;-82
2022/11/19 04:08:24;;;;;;;30.15;7.47;;;;;;;9.60;100.00;100726.94;5077164;28;20044;-82
2022/11/19 04:10:50;;;;;;;32.90;6.45;;;;;;;9.59;100.00;100678.16;5076734;28;20048;-82
2022/11/19 04:13:17;;;;;;;38.42;7.75;;;;;;;9.78;100.00;100684.47;5076559;28;20097;-82
2022/11/19 04:15:44;;;;;;;23.23;6.18;;;;;;;9.72;100.00;100709.97;5075467;28;20044;-82
2022/11/19 04:18:11;;;;;;;33.13;7.63;;;;;;;9.59;100.00;100722.59;5074640;28;20113;-82
2022/11/19 04:20:37;;;;;;;32.17;7.50;;;;;;;9.65;100.00;100727.59;5094647;28;20051;-82
2022/11/19 04:23:04;;;;;;;26.90;6.90;;;;;;;9.71;100.00;100697.81;5093976;28;20105;-82
2022/11/19 04:25:31;;;;;;;48.08;9.35;;;;;;;9.83;100.00;100734.84;5097560;28;20541;-82
2022/11/19 04:27:58;;;;;;;30.63;7.65;;;;;;;9.74;100.00;100729.94;5076738;28;20443;-82
2022/11/19 04:30:25;;;;;;;24.42;5.93;;;;;;;9.69;100.00;100718.78;5094260;28;20048;-82
2022/11/19 04:32:51;;;;;;;37.20;6.35;;;;;;;9.70;100.00;100741.38;5065278;28;20044;-82
2022/11/19 04:35:20;;;;;;;25.63;6.00;;;;;;;9.76;100.00;100761.25;5093538;28;20048;-82
2022/11/19 04:37:47;;;;;;;28.35;6.50;;;;;;;9.89;100.00;100718.91;5076313;28;20044;-82
2022/11/19 04:40:14;;;;;;;34.70;6.45;;;;;;;9.82;100.00;100754.03;5077282;28;20060;-82
2022/11/19 04:42:42;;;;;;;36.75;6.45;;;;;;;9.80;100.00;100770.69;5094234;28;20093;-82
2022/11/19 04:45:09;;;;;;;25.30;6.10;;;;;;;9.47;100.00;100750.88;5093830;28;20048;-82
2022/11/19 04:47:36;;;;;;;30.83;5.68;;;;;;;9.61;100.00;100786.13;5093240;28;20102;-82
2022/11/19 04:50:03;;;;;;;32.00;7.85;;;;;;;9.68;100.00;100757.16;5075349;28;20052;-82
2022/11/19 04:52:31;;;;;;;28.40;4.80;;;;;;;9.57;100.00;100764.47;5093338;28;20051;-81
2022/11/19 04:55:06;;;;;;;25.77;6.13;;;;;;;9.59;100.00;100765.28;5093228;28;20058;-82
2022/11/19 04:57:32;;;;;;;29.52;6.28;;;;;;;9.50;100.00;100773.41;5093612;28;20056;-82
2022/11/19 04:59:59;;;;;;;24.77;5.97;;;;;;;9.38;100.00;100786.88;5093542;28;20052;-82
2022/11/19 05:02:26;;;;;;;23.48;5.32;;;;;;;9.56;100.00;100788.03;5075998;28;20101;-82
2022/11/19 05:04:52;;;;;;;27.65;5.97;;;;;;;9.53;100.00;100790.78;5094093;28;20044;-82
2022/11/19 05:07:19;;;;;;;28.83;7.40;;;;;;;9.77;100.00;100791.72;5092828;28;20109;-82
2022/11/19 05:09:46;;;;;;;25.02;5.47;;;;;;;9.87;100.00;100775.66;5093057;28;20528;-82
2022/11/19 05:12:12;;;;;;;24.60;6.10;;;;;;;9.17;100.00;100755.31;5073823;28;20059;-82
2022/11/19 05:14:39;;;;;;;25.35;5.38;;;;;;;9.63;100.00;100790.44;5075868;28;20055;-82
2022/11/19 05:17:06;;;;;;;29.25;5.95;;;;;;;9.47;100.00;100791.81;5092785;28;20048;-82
2022/11/19 05:19:32;;;;;;;29.50;6.68;;;;;;;9.46;100.00;100790.13;5072404;28;20098;-82
2022/11/19 05:21:59;;;;;;;30.30;5.50;;;;;;;9.47;100.00;100802.25;5093690;28;20489;-82
2022/11/19 05:24:26;;;;;;;21.45;5.18;;;;;;;9.41;100.00;100800.69;5093505;28;20097;-82
2022/11/19 05:26:53;;;;;;;22.27;5.95;;;;;;;9.32;100.00;100812.28;5066559;28;20313;-82
2022/11/19 05:29:19;;;;;;;24.67;7.07;;;;;;;9.23;100.00;100796.91;5069023;28;20048;-82
2022/11/19 05:31:47;;;;;;;24.77;5.22;;;;;;;9.31;100.00;100791.44;5090402;28;20067;-82
2022/11/19 05:34:13;;;;;;;28.17;6.43;;;;;;;9.29;100.00;100780.19;5075668;28;20098;-82
2022/11/19 05:36:40;;;;;;;23.13;5.45;;;;;;;9.08;100.00;100807.81;5092377;28;20052;-82
2022/11/19 05:39:07;;;;;;;26.67;4.88;;;;;;;9.39;100.00;100794.66;5092959;28;20097;-82
2022/11/19 05:41:33;;;;;;;34.17;7.05;;;;;;;9.30;100.00;100805.41;5074871;28;20121;-82
2022/11/19 05:44:00;;;;;;;40.38;6.60;;;;;;;9.36;100.00;100826.13;5075259;28;20048;-83
2022/11/19 05:46:27;;;;;;;31.10;6.78;;;;;;;9.45;100.00;100827.59;5074238;28;20443;-82
2022/11/19 05:48:54;;;;;;;31.15;6.38;;;;;;;9.57;100.00;100839.44;5092761;28;20097;-83
2022/11/19 05:51:20;;;;;;;28.77;6.00;;;;;;;9.24;100.00;100818.66;5093300;28;20044;-82
2022/11/19 05:53:47;;;;;;;27.67;5.50;;;;;;;9.23;100.00;100830.03;5074324;28;20101;-83
2022/11/19 05:56:14;;;;;;;24.80;4.85;;;;;;;9.20;100.00;100830.13;5091411;28;20040;-82
2022/11/19 05:58:41;;;;;;;24.58;6.03;;;;;;;8.90;100.00;100832.72;5092635;28;20048;-82
2022/11/19 06:01:07;;;;;;;25.25;5.40;;;;;;;8.69;100.00;100840.28;5092809;28;20061;-83
2022/11/19 06:03:34;;;;;;;30.00;5.47;;;;;;;8.89;100.00;100824.06;5092592;28;20101;-83
2022/11/19 06:06:01;;;;;;;21.63;4.88;;;;;;;8.89;100.00;100824.06;5092286;28;20473;-83
2022/11/19 06:08:28;;;;;;;26.98;5.43;;;;;;;9.15;100.00;100832.84;5092633;28;20048;-83
2022/11/19 06:10:54;;;;;;;29.15;5.72;;;;;;;9.42;100.00;100838.13;5091963;28;20048;-83
2022/11/19 06:13:21;;;;;;;27.67;5.68;;;;;;;9.21;100.00;100803.94;5091517;28;20048;-83
2022/11/19 06:15:48;;;;;;;25.83;5.30;;;;;;;9.29;100.00;100829.81;5090824;28;20094;-83
2022/11/19 06:18:14;;;;;;;27.45;7.82;;;;;;;9.32;100.00;100824.50;5092374;28;20051;-83
2022/11/19 06:20:41;;;;;;;19.48;5.00;;;;;;;9.37;100.00;100827.00;5092374;28;20058;-83
2022/11/19 06:23:08;;;;;;;22.25;5.93;;;;;;;9.20;100.00;100841.41;5092016;28;20044;-83
2022/11/19 06:25:34;;;;;;;30.90;6.03;;;;;;;9.02;100.00;100847.19;5090836;28;20043;-84
2022/11/19 06:28:01;;;;;;;20.60;4.78;;;;;;;8.97;100.00;100833.41;5074219;28;20052;-85
2022/11/19 06:30:28;;;;;;;24.17;5.28;;;;;;;9.04;100.00;100824.50;5074210;28;20036;-83
2022/11/19 06:32:55;;;;;;;22.75;5.45;;;;;;;9.22;100.00;100833.53;5074340;28;20063;-83
2022/11/19 06:35:21;;;;;;;24.88;4.78;;;;;;;9.06;100.00;100786.13;5091321;28;20051;-83
2022/11/19 06:37:48;;;;;;;22.80;6.43;;;;;;;9.36;100.00;100827.88;5091758;28;20704;-83
2022/11/19 06:40:15;;;;;;;17.73;4.95;;;;;;;9.21;100.00;100810.94;5073174;28;20044;-84
2022/11/19 06:42:41;;;;;;;32.13;6.85;;;;;;;9.03;100.00;100776.63;5073616;28;20044;-83
2022/11/19 06:45:14;;;;;;;24.48;4.68;;;;;;;9.40;100.00;100843.44;5091188;28;20047;-84
2022/11/19 06:47:41;;;;;;;24.45;5.57;;;;;;;9.18;100.00;100834.53;5092085;28;20054;-84
2022/11/19 06:50:09;;;;;;;21.05;4.85;;;;;;;9.60;100.00;100842.81;5091887;28;20071;-83
2022/11/19 06:52:36;;;;;;;26.63;5.53;;;;;;;9.23;100.00;100809.97;5074282;28;20044;-83
2022/11/19 06:55:03;;;;;;;20.80;4.97;;;;;;;9.36;100.00;100833.97;5096898;28;20493;-84
2022/11/19 06:57:30;;;;;;;24.00;5.93;;;;;;;9.29;100.00;100840.28;5073127;28;20059;-83
2022/11/19 06:59:57;;;;;;;29.65;6.78;;;;;;;9.32;100.00;100864.56;5106383;28;20048;-84
2022/11/19 07:02:24;;;;;;;36.42;7.47;;;;;;;9.23;100.00;100866.59;5066306;28;20102;-84
2022/11/19 07:04:50;;;;;;;20.23;5.95;;;;;;;9.17;100.00;100827.59;5067172;28;20440;-83
2022/11/19 07:07:17;;;;;;;33.28;6.03;;;;;;;9.02;100.00;100848.03;5078689;28;20048;-84
2022/11/19 07:09:44;;;;;;;25.35;5.90;;;;;;;9.06;100.00;100825.31;5084927;28;20044;-84
2022/11/19 07:12:11;;;;;;;29.95;6.07;;;;;;;9.02;100.00;100861.09;5085356;28;20048;-84
2022/11/19 07:14:37;;;;;;;18.90;4.82;;;;;;;9.04;100.00;100867.13;5072146;28;20048;-84
2022/11/19 07:17:05;;;;;;;27.33;6.20;;;;;;;9.19;100.00;100865.84;5067151;28;20048;-83
2022/11/19 07:19:31;;;;;;;27.90;5.65;;;;;;;9.15;100.00;100855.53;5095819;28;20052;-83
2022/11/19 07:21:58;;;;;;;19.88;4.35;;;;;;;9.03;100.00;100870.66;5096122;28;20102;-83
2022/11/19 07:24:25;;;;;;;33.30;6.10;;;;;;;8.74;100.00;100841.00;5079026;28;20047;-83
2022/11/19 07:26:53;;;;;;;29.95;6.80;;;;;;;8.97;100.00;100849.09;5070981;28;20052;-83
2022/11/19 07:29:20;;;;;;;27.85;5.95;;;;;;;8.98;100.00;100854.25;5086051;28;20105;-83
2022/11/19 07:31:49;;;;;;;27.80;6.15;;;;;;;9.02;100.00;100850.66;5102198;28;20048;-83
2022/11/19 07:34:17;;;;;;;24.25;5.43;;;;;;;9.28;100.00;100859.50;5087930;28;20714;-83
2022/11/19 07:36:44;;;;;;;22.23;5.53;;;;;;;9.15;100.00;100861.59;5089196;28;20117;-83
2022/11/19 07:39:11;;;;;;;21.95;5.05;;;;;;;9.09;100.00;100841.75;5067926;28;20097;-82
2022/11/19 07:44:23;;;;;;;22.98;4.43;;;;;;;9.17;100.00;100858.94;5087980;28;20063;-82
2022/11/19 07:46:50;;;;;;;28.95;4.93;;;;;;;9.00;100.00;100838.56;5088318;28;20048;-82
2022/11/19 07:49:18;;;;;;;19.17;4.82;;;;;;;9.24;100.00;100870.91;5094055;28;20048;-82
2022/11/19 07:51:45;;;;;;;27.15;4.63;;;;;;;9.12;100.00;100835.59;5085684;28;20050;-83
2022/11/19 07:54:13;;;;;;;25.58;5.45;;;;;;;9.27;100.00;100865.59;5088381;28;20047;-82
2022/11/19 07:56:39;;;;;;;18.13;4.55;;;;;;;9.07;100.00;100864.44;5074391;28;20497;-83
2022/11/19 07:59:06;;;;;;;17.95;4.45;;;;;;;8.99;100.00;100847.28;5087221;28;20052;-83
2022/11/19 08:01:33;;;;;;;31.25;5.38;;;;;;;9.10;100.00;100840.84;5074069;28;20052;-82
2022/11/19 08:04:01;;;;;;;29.17;5.40;;;;;;;9.24;100.00;100836.94;5081625;28;20047;-82
2022/11/19 08:06:28;;;;;;;19.70;4.35;;;;;;;9.30;100.00;100870.75;5074855;28;20452;-82
2022/11/19 08:08:55;;;;;;;22.73;5.07;;;;;;;9.13;100.00;100837.28;5086621;28;20048;-82
2022/11/19 08:11:23;;;;;;;23.25;5.88;;;;;;;9.07;100.00;100848.75;5074256;28;20048;-82
2022/11/19 08:13:51;;;;;;;21.33;5.45;;;;;;;9.07;100.00;100847.91;5104594;28;20084;-82
2022/11/19 08:19:06;;;;;;;28.63;5.57;;;;;;;9.16;100.00;100892.06;5088401;28;20540;-82
2022/11/19 08:21:33;;;;;;;21.60;4.60;;;;;;;8.97;100.00;100849.09;5072673;28;20094;-82
2022/11/19 08:24:00;;;;;;;19.80;5.18;;;;;;;9.19;100.00;100878.91;5091728;28;20477;-81
2022/11/19 08:26:28;;;;;;;20.02;4.97;;;;;;;9.24;100.00;100897.91;5086118;28;20056;-81
2022/11/19 08:28:54;;;;;;;28.77;5.22;;;;;;;8.93;100.00;100841.31;5071010;28;20054;-81
2022/11/19 08:31:21;;;;;;;18.77;4.63;;;;;;;9.23;100.00;100877.06;5091065;28;20079;-81
2022/11/19 08:33:48;;;;;;;26.02;5.38;;;;;;;9.26;100.00;100893.50;5102813;28;20490;-82
2022/11/19 08:36:15;;;;;;;26.20;4.85;;;;;;;8.99;100.00;100861.19;5077043;28;20051;-81
2022/11/19 08:38:41;;;;;;;21.13;5.28;;;;;;;9.57;100.00;100887.31;5093425;28;20074;-81
2022/11/19 08:43:54;;;;;;;25.90;6.68;;;;;;;9.03;100.00;100855.00;5089773;28;20511;-81
2022/11/19 08:46:20;;;;;;;24.25;5.13;;;;;;;9.05;100.00;100886.28;5067260;28;20063;-81
2022/11/19 08:48:47;;;;;;;25.58;6.15;;;;;;;8.97;100.00;100889.09;5076236;28;20406;-82
2022/11/19 08:51:15;;;;;;;22.60;6.05;;;;;;;9.17;100.00;100877.22;5090745;28;20048;-82
2022/11/19 08:53:42;;;;;;;21.35;5.10;;;;;;;9.02;100.00;100863.72;5067447;28;20083;-81
2022/11/19 08:56:08;;;;;;;23.05;5.30;;;;;;;9.24;100.00;100877.00;5091389;28;20055;-81
2022/11/19 08:58:42;;;;;;;;;;;;;;;9.91;100.00;100901.94;5089263;28;20048;-81
2022/11/19 09:01:10;;;;;;;22.42;5.25;;;;;;;9.67;100.00;100894.00;5091110;28;19920;-82
2022/11/19 09:03:37;;;;;;;25.17;6.00;;;;;;;9.18;100.00;100892.84;5094085;28;20440;-82
2022/11/19 09:06:04;;;;;;;30.65;5.47;;;;;;;9.37;100.00;100885.34;5074452;28;20098;-83
2022/11/19 09:08:35;;;;;;;26.52;5.32;;;;;;;9.59;100.00;100914.28;5064486;28;20087;-83
2022/11/19 09:11:11;;;;;;;21.50;5.40;;;;;;;9.59;100.00;100911.66;5090752;28;20405;-83
2022/11/19 09:13:38;;;;;;;21.77;5.35;;;;;;;9.28;100.00;100881.25;5069934;28;20047;-82
2022/11/19 09:16:06;;;;;;;27.52;5.38;;;;;;;9.31;100.00;100881.16;5067836;28;20074;-82
2022/11/19 09:18:40;;;;;;;29.13;5.00;;;;;;;9.37;100.00;100919.31;5089669;28;20040;-83
2022/11/19 09:21:09;;;;;;;25.02;4.40;;;;;;;9.52;100.00;100901.44;5087277;28;20098;-82
2022/11/19 09:23:37;;;;;;;15.00;4.47;;;;;;;9.61;100.00;100916.84;5085204;28;20063;-82
2022/11/19 09:26:07;;;;;;;23.63;4.10;;;;;;;9.02;100.00;100884.59;5088549;28;20105;-83
2022/11/19 09:28:34;;;;;;;19.90;4.10;;;;;;;9.12;100.00;100927.00;5090268;28;20047;-82
2022/11/19 09:31:07;;;;;;;18.00;5.85;;;;;;;9.03;100.00;100922.91;5069636;28;20048;-84
2022/11/19 09:33:37;;;;;;;20.45;5.05;;;;;;;9.18;100.00;100905.91;5091025;28;20048;-83
2022/11/19 09:36:04;;;;;;;30.77;7.03;;;;;;;9.39;100.00;100930.56;5088377;28;20048;-83
2022/11/19 09:38:33;;;;;;;27.88;6.82;;;;;;;9.24;100.00;100899.66;5090843;28;20055;-83
2022/11/19 09:41:19;;;;;;;23.58;6.50;;;;;;;9.17;100.00;100926.84;5085319;28;20556;-83
2022/11/19 09:44:04;;;;;;;22.05;5.28;;;;;;;9.09;100.00;100934.94;5100638;28;20073;-82
2022/11/19 09:47:05;;;;;;;31.77;6.97;;;;;;;8.99;100.00;100912.56;5083528;28;20084;-82
2022/11/19 09:49:44;;;;;;;22.77;4.07;;;;;;;9.17;100.00;100943.41;5084558;28;20052;-83
2022/11/19 09:52:15;;;;;;;23.63;4.20;;;;;;;9.11;100.00;100910.47;5083662;28;20048;-83
2022/11/19 09:54:49;;;;;;;20.38;5.22;;;;;;;9.01;100.00;100893.34;5066573;28;20060;-84
2022/11/19 09:57:57;;;;;;;18.20;4.57;;;;;;;9.14;100.00;100930.44;5089505;28;20493;-84
2022/11/19 10:00:30;;;;;;;25.80;5.50;;;;;;;9.03;100.00;100925.50;5088482;28;20098;-84
2022/11/19 10:03:00;;;;;;;19.42;4.70;;;;;;;8.82;100.00;100882.56;5087298;28;20052;-85
2022/11/19 10:05:42;;;;;;;26.98;5.10;;;;;;;9.02;100.00;100933.38;5082267;28;20499;-85
2022/11/19 10:08:12;;;;;;;25.93;5.53;;;;;;;9.03;100.00;100942.91;5087946;28;20055;-85
2022/11/19 10:11:02;;;;;;;30.05;6.65;;;;;;;8.95;100.00;100921.41;5065096;28;20040;-85
2022/11/19 10:14:11;;;;;;;22.77;5.47;;;;;;;8.92;100.00;100925.81;5082504;28;20477;-85
2022/11/19 10:16:47;;;;;;;21.85;4.15;;;;;;;8.92;100.00;100933.66;5079743;28;20055;-84
2022/11/19 10:19:58;;;;;;;22.70;5.00;;;;;;;8.83;100.00;100920.81;5099889;28;20057;-84
2022/11/19 10:22:44;;;;;;;22.05;5.90;;;;;;;8.83;100.00;100920.81;5063953;28;20055;-83
2022/11/19 10:25:23;;;;;;;17.10;5.10;;;;;;;8.71;100.00;100908.09;5065594;28;20093;-84
2022/11/19 10:27:55;;;;;;;17.58;4.32;;;;;;;8.69;100.00;100907.28;5086654;28;20473;-84
2022/11/19 10:30:28;;;;;;;16.33;4.53;;;;;;;8.54;100.00;100904.19;5086823;28;20101;-84
2022/11/19 10:32:54;;;;;;;24.50;4.53;;;;;;;8.79;100.00;100913.97;5068258;28;20056;-83
2022/11/19 10:35:28;;;;;;;22.98;3.95;;;;;;;8.74;100.00;100905.41;5076705;28;20048;-83
2022/11/19 10:37:58;;;;;;;20.73;5.35;;;;;;;8.83;100.00;100917.34;5067371;28;20052;-84
2022/11/19 10:40:34;;;;;;;18.83;4.38;;;;;;;9.03;100.00;100907.22;5087514;28;20054;-83
2022/11/19 10:43:35;;;;;;;27.40;4.90;;;;;;;9.04;100.00;100923.75;5068805;28;20536;-83
2022/11/19 10:46:08;;;;;;;17.30;4.15;;;;;;;8.79;100.00;100911.38;5066673;28;20044;-82
2022/11/19 10:48:45;;;;;;;19.25;3.80;;;;;;;8.82;100.00;100905.19;5066162;28;20097;-82
2022/11/19 10:51:19;;;;;;;18.55;4.53;;;;;;;8.98;100.00;100909.13;5081729;28;20052;-84
2022/11/19 10:53:46;;;;;;;31.15;5.18;;;;;;;9.03;100.00;100903.75;5070658;28;20483;-83
2022/11/19 10:56:18;;;;;;;26.50;4.53;;;;;;;8.92;100.00;100911.88;5094126;28;20047;-83
2022/11/19 10:58:49;;;;;;;21.45;5.22;;;;;;;8.83;100.00;100893.88;5080633;28;20106;-83
2022/11/19 11:01:31;;;;;;;19.95;4.55;;;;;;;9.10;100.00;100903.53;5062644;28;20722;-84
2022/11/19 11:04:20;;;;;;;21.42;5.47;;;;;;;8.96;100.00;100899.59;5091667;28;20076;-83
2022/11/19 11:07:01;;;;;;;18.83;4.18;;;;;;;8.87;100.00;100900.69;5084128;28;20036;-83
2022/11/19 11:09:39;;;;;;;20.17;4.15;;;;;;;9.04;100.00;100902.84;5069584;28;20747;-82
2022/11/19 11:15:16;;;;;;;32.90;5.40;;;;;;;8.72;100.00;100883.72;5080332;28;20474;-84
2022/11/19 11:17:45;;;;;;;21.42;4.80;;;;;;;8.94;100.00;100860.44;5087351;28;20044;-83
2022/11/19 11:20:15;;;;;;;30.05;4.30;;;;;;;8.86;100.00;100884.19;5058405;28;20105;-83
2022/11/19 11:22:48;;;;;;;22.13;5.43;;;;;;;8.92;100.00;100884.03;5082560;28;20162;-83
2022/11/19 11:25:25;;;;;;;23.13;5.38;;;;;;;8.76;100.00;100872.28;5089106;28;20052;-82
2022/11/19 11:28:13;;;;;;;17.27;4.10;;;;;;;8.74;100.00;100846.22;5091688;28;20059;-84
2022/11/19 11:30:57;;;;;;;22.65;5.65;;;;;;;8.97;100.00;100864.75;5079453;28;20048;-83
2022/11/19 11:33:23;;;;;;;21.23;4.20;;;;;;;9.17;100.00;100857.19;5091788;28;20428;-82
2022/11/19 11:35:52;;;;;;;16.05;4.60;;;;;;;9.15;100.00;100852.91;5067639;28;20449;-83
2022/11/19 11:38:25;;;;;;;23.20;4.70;;;;;;;8.98;100.00;100842.94;5082415;28;20599;-83
2022/11/19 11:41:08;;;;;;;22.02;6.13;;;;;;;9.21;100.00;100850.97;5068584;28;20102;-83
2022/11/19 11:44:00;;;;;;;22.67;5.30;;;;;;;9.10;100.00;100850.41;5085053;28;20051;-82
2022/11/19 11:46:34;;;;;;;26.65;5.90;;;;;;;8.91;100.00;100848.34;5061423;28;20086;-82
2022/11/19 11:49:02;;;;;;;18.85;3.95;;;;;;;8.96;100.00;100822.13;5085088;28;20101;-83
2022/11/19 11:51:38;;;;;;;26.25;5.13;;;;;;;9.20;100.00;100828.34;5081110;28;20098;-83
2022/11/19 11:54:16;;;;;;;19.00;4.32;;;;;;;9.04;100.00;100827.94;5081973;28;20040;-82
2022/11/19 11:56:44;;;;;;;22.48;4.45;;;;;;;8.98;100.00;100838.59;5064542;28;20087;-82
2022/11/19 11:59:27;;;;;;;23.95;4.85;;;;;;;9.23;100.00;100843.09;5068900;28;20055;-83